Time;durP1;ratioP1;P1;durP2;ratioP2;P2;SDS_P1;SDS_P2;PMS_P1;PMS_P2;Temp;Humidity;BMP_temperature;BMP_pressure;BME280_temperature;BME280_humidity;BME280_pressure;Samples;Min_cycle;Max_cycle;Signal;HPM_P1;HPM_P2
2023/07/12 00:01:16;;;;;;;2.25;0.60;;;22.80;91.80;;;;;;5033543;28;20033;-73
2023/07/12 00:03:42;;;;;;;2.00;0.82;;;22.80;91.90;;;;;;5033240;28;20101;-73
2023/07/12 00:06:16;;;;;;;1.73;0.70;;;22.70;92.00;;;;;;5033159;28;20537;-73
2023/07/12 00:08:42;;;;;;;1.77;0.40;;;22.60;92.10;;;;;;5033014;28;20502;-73
2023/07/12 00:11:23;;;;;;;2.65;0.80;;;22.70;92.20;;;;;;5032961;28;20065;-73
2023/07/12 00:13:50;;;;;;;4.80;0.70;;;22.70;92.40;;;;;;5015717;28;20048;-73
2023/07/12 00:16:24;;;;;;;4.85;0.93;;;22.70;92.50;;;;;;5032743;28;20466;-73
2023/07/12 00:18:51;;;;;;;2.35;0.85;;;22.60;92.60;;;;;;5033403;28;20487;-73
2023/07/12 00:21:23;;;;;;;2.97;1.25;;;22.50;92.80;;;;;;5033155;28;20113;-75
2023/07/12 00:23:51;;;;;;;2.05;0.77;;;22.50;92.90;;;;;;5033334;28;20043;-73
2023/07/12 00:26:31;;;;;;;2.10;0.98;;;22.40;93.00;;;;;;5033239;28;20034;-73
2023/07/12 00:28:59;;;;;;;3.28;0.50;;;22.40;93.10;;;;;;5032460;28;20088;-73
2023/07/12 00:31:25;;;;;;;2.08;0.47;;;22.30;93.30;;;;;;5032768;28;20434;-73
2023/07/12 00:33:51;;;;;;;2.65;0.80;;;22.30;93.30;;;;;;5032822;28;20466;-73
2023/07/12 00:36:21;;;;;;;3.47;1.15;;;22.30;93.40;;;;;;5014634;28;20041;-74
2023/07/12 00:38:46;;;;;;;3.28;0.75;;;22.30;93.50;;;;;;5033044;28;20018;-74
2023/07/12 00:41:31;;;;;;;4.35;0.68;;;22.30;93.50;;;;;;4998954;28;20041;-73
2023/07/12 00:44:04;;;;;;;2.17;0.90;;;22.30;93.60;;;;;;5014941;28;20022;-73
2023/07/12 00:46:38;;;;;;;2.33;0.77;;;22.30;93.70;;;;;;5033082;28;20112;-74
2023/07/12 00:49:04;;;;;;;2.53;0.80;;;22.20;93.60;;;;;;5015139;28;20032;-74
2023/07/12 00:51:54;;;;;;;2.28;0.80;;;22.10;93.70;;;;;;5015193;28;20049;-73
2023/07/12 00:54:24;;;;;;;1.60;0.55;;;22.10;93.90;;;;;;5032791;28;20032;-74
2023/07/12 00:56:50;;;;;;;1.02;0.47;;;22.10;93.90;;;;;;5032678;28;20036;-73
2023/07/12 00:59:26;;;;;;;3.95;0.80;;;22.20;94.00;;;;;;5015108;28;20029;-73
2023/07/12 01:01:58;;;;;;;3.13;0.70;;;22.20;93.80;;;;;;5033161;28;20048;-73
2023/07/12 01:04:40;;;;;;;2.85;1.10;;;22.30;93.80;;;;;;5033479;28;20148;-74
2023/07/12 01:07:06;;;;;;;2.83;1.00;;;22.30;93.60;;;;;;5036614;28;20057;-74
2023/07/12 01:09:32;;;;;;;2.83;1.00;;;22.10;93.60;;;;;;5019071;28;20033;-74
2023/07/12 01:11:59;;;;;;;4.60;1.40;;;22.10;93.80;;;;;;5036461;28;20120;-74
2023/07/12 01:14:25;;;;;;;3.75;1.50;;;22.00;93.70;;;;;;5036597;28;20457;-74
2023/07/12 01:16:56;;;;;;;4.57;1.05;;;22.00;93.80;;;;;;5036686;28;20025;-74
2023/07/12 01:19:22;;;;;;;6.28;1.80;;;21.80;93.80;;;;;;5036270;28;20021;-74
2023/07/12 01:21:51;;;;;;;4.15;1.10;;;21.80;93.80;;;;;;5018713;28;20485;-74
2023/07/12 01:24:18;;;;;;;3.50;1.35;;;21.80;93.80;;;;;;5036254;28;20108;-74
2023/07/12 01:26:57;;;;;;;3.20;0.90;;;21.80;93.90;;;;;;5036159;28;20488;-74
2023/07/12 01:29:24;;;;;;;2.88;0.93;;;21.70;94.00;;;;;;5036535;28;20048;-74
2023/07/12 01:31:51;;;;;;;3.78;1.10;;;21.60;94.10;;;;;;5036411;28;20033;-74
2023/07/12 01:34:17;;;;;;;7.07;1.45;;;21.60;94.30;;;;;;5036150;28;20520;-74
2023/07/12 01:36:43;;;;;;;6.35;1.30;;;21.40;94.30;;;;;;5018395;28;20045;-74
2023/07/12 01:39:09;;;;;;;4.68;1.23;;;21.30;94.60;;;;;;5036156;28;20091;-74
2023/07/12 01:41:35;;;;;;;5.95;1.20;;;21.20;94.80;;;;;;5036253;28;20041;-75
2023/07/12 01:44:01;;;;;;;4.47;1.10;;;21.20;95.00;;;;;;5036210;28;20064;-74
2023/07/12 01:46:27;;;;;;;6.90;1.40;;;21.10;94.90;;;;;;5035753;28;20029;-74
2023/07/12 01:48:53;;;;;;;7.82;1.25;;;21.20;95.10;;;;;;5036138;28;20075;-74
2023/07/12 01:51:20;;;;;;;7.03;1.23;;;21.20;94.80;;;;;;5035948;28;20029;-74
2023/07/12 01:53:45;;;;;;;7.55;1.55;;;21.10;94.90;;;;;;5018265;28;20372;-75
2023/07/12 01:56:12;;;;;;;6.63;1.70;;;21.00;94.90;;;;;;5036194;28;20167;-75
2023/07/12 01:58:38;;;;;;;6.72;1.60;;;21.00;94.90;;;;;;5035666;28;20022;-75
2023/07/12 02:01:04;;;;;;;6.28;1.63;;;20.90;95.20;;;;;;5035980;28;20041;-74
2023/07/12 02:03:30;;;;;;;2.90;0.75;;;20.80;95.30;;;;;;5035620;28;20044;-74
2023/07/12 02:05:56;;;;;;;3.20;0.63;;;20.80;95.50;;;;;;5035336;28;20112;-74
2023/07/12 02:08:22;;;;;;;3.08;0.70;;;20.90;95.70;;;;;;5035755;28;20477;-74
2023/07/12 02:10:48;;;;;;;3.85;0.82;;;21.00;95.90;;;;;;5001479;28;20052;-74
2023/07/12 02:13:14;;;;;;;3.90;0.93;;;21.20;95.90;;;;;;5017770;28;20043;-74
2023/07/12 02:15:40;;;;;;;4.97;1.20;;;21.30;95.40;;;;;;5034555;28;20072;-74
2023/07/12 02:18:06;;;;;;;2.53;0.70;;;21.40;95.20;;;;;;5017827;28;20029;-74
2023/07/12 02:20:32;;;;;;;3.08;1.15;;;21.40;95.10;;;;;;5017768;28;20029;-75
2023/07/12 02:22:58;;;;;;;3.55;0.60;;;21.40;95.20;;;;;;5035166;28;20030;-74
2023/07/12 02:25:24;;;;;;;6.38;1.85;;;21.50;95.30;;;;;;5035402;28;20465;-74
2023/07/12 02:27:50;;;;;;;4.68;1.08;;;21.60;95.20;;;;;;5033813;28;20108;-74
2023/07/12 02:30:19;;;;;;;5.70;1.20;;;21.70;95.10;;;;;;5035198;28;20083;-74
2023/07/12 02:32:46;;;;;;;5.00;1.30;;;21.80;94.90;;;;;;5035240;28;20029;-74
2023/07/12 02:35:12;;;;;;;5.60;1.35;;;21.80;94.70;;;;;;5034597;28;20036;-74
2023/07/12 02:37:37;;;;;;;7.25;1.25;;;21.80;94.50;;;;;;5034957;28;20029;-74
2023/07/12 02:40:05;;;;;;;5.72;1.50;;;21.70;94.40;;;;;;5017187;28;20037;-74
2023/07/12 02:42:31;;;;;;;3.70;0.88;;;21.70;94.40;;;;;;5036153;28;20037;-78
2023/07/12 02:44:57;;;;;;;4.88;0.85;;;21.70;94.60;;;;;;5036341;28;20045;-77
2023/07/12 02:47:23;;;;;;;5.45;1.10;;;21.50;94.80;;;;;;5019495;28;20037;-78
2023/07/12 02:49:49;;;;;;;4.13;0.77;;;21.50;94.80;;;;;;5018863;28;20026;-78
2023/07/12 02:52:15;;;;;;;5.18;0.98;;;21.50;94.80;;;;;;5018007;28;20040;-78
2023/07/12 02:54:41;;;;;;;4.35;0.70;;;21.50;94.80;;;;;;5035879;28;20450;-78
2023/07/12 02:57:09;;;;;;;4.45;1.00;;;21.50;94.70;;;;;;5018715;28;20103;-78
2023/07/12 02:59:35;;;;;;;1.95;0.50;;;21.50;94.80;;;;;;5018217;28;20531;-78
2023/07/12 03:02:00;;;;;;;5.68;0.80;;;21.60;94.80;;;;;;5021006;28;20038;-78
2023/07/12 03:04:26;;;;;;;5.60;0.90;;;21.60;94.80;;;;;;5018882;28;20100;-77
2023/07/12 03:06:52;;;;;;;3.03;0.73;;;21.70;94.80;;;;;;5035841;28;20025;-78
2023/07/12 03:09:17;;;;;;;3.53;0.65;;;21.70;94.80;;;;;;5019563;28;20428;-78
2023/07/12 03:11:47;;;;;;;4.47;0.65;;;21.70;94.50;;;;;;5018210;28;20041;-79
2023/07/12 03:14:20;;;;;;;3.60;0.98;;;21.70;94.30;;;;;;5035887;28;20578;-79
2023/07/12 03:16:46;;;;;;;3.03;0.80;;;21.70;94.10;;;;;;5017760;28;20040;-78
2023/07/12 03:19:13;;;;;;;3.88;0.70;;;21.60;94.20;;;;;;5017919;28;20064;-78
2023/07/12 03:21:39;;;;;;;4.22;0.93;;;21.70;94.40;;;;;;5017382;28;20040;-77
2023/07/12 03:24:05;;;;;;;6.18;1.30;;;21.60;94.20;;;;;;5017306;28;20037;-78
2023/07/12 03:26:32;;;;;;;5.72;1.27;;;21.60;94.20;;;;;;5001168;28;20025;-78
2023/07/12 03:28:58;;;;;;;5.60;1.25;;;21.50;94.00;;;;;;5016676;28;20091;-78
2023/07/12 03:31:25;;;;;;;5.43;1.15;;;21.40;94.20;;;;;;5019260;28;20038;-78
2023/07/12 03:33:51;;;;;;;5.47;0.88;;;21.20;94.10;;;;;;5038143;28;20071;-78
2023/07/12 03:36:18;;;;;;;6.43;1.27;;;21.10;94.40;;;;;;5001966;28;20128;-78
2023/07/12 03:38:44;;;;;;;7.50;1.45;;;21.00;94.50;;;;;;5020571;28;20025;-79
2023/07/12 03:41:11;;;;;;;4.38;1.00;;;20.90;95.00;;;;;;5023348;28;20037;-77
2023/07/12 03:43:37;;;;;;;8.10;1.58;;;20.70;95.00;;;;;;5024873;28;20029;-78
2023/07/12 03:46:04;;;;;;;5.07;1.20;;;20.50;95.30;;;;;;5037869;28;20035;-78
2023/07/12 03:48:30;;;;;;;6.32;1.75;;;20.50;95.70;;;;;;5021168;28;20041;-78
2023/07/12 03:50:56;;;;;;;4.75;1.30;;;20.40;95.90;;;;;;5021463;28;20160;-78
2023/07/12 03:53:23;;;;;;;8.07;1.63;;;20.40;96.00;;;;;;5020331;28;20045;-78
2023/07/12 03:55:49;;;;;;;5.32;1.10;;;20.40;96.10;;;;;;5038982;28;20080;-79
2023/07/12 03:58:18;;;;;;;7.10;1.80;;;20.40;96.10;;;;;;5039487;28;20029;-79
2023/07/12 04:00:45;;;;;;;4.70;1.35;;;20.40;96.00;;;;;;5018857;28;20068;-79
2023/07/12 04:03:12;;;;;;;6.70;1.55;;;20.30;96.20;;;;;;5035790;28;20109;-79
2023/07/12 04:05:39;;;;;;;7.60;1.58;;;20.40;96.30;;;;;;5035242;28;20048;-79
2023/07/12 04:08:05;;;;;;;4.60;1.90;;;20.30;96.30;;;;;;5018564;28;20029;-78
2023/07/12 04:10:32;;;;;;;5.03;1.88;;;20.30;96.40;;;;;;5019259;28;20072;-79
2023/07/12 04:12:58;;;;;;;6.88;2.08;;;20.20;96.40;;;;;;5035465;28;20033;-79
2023/07/12 04:15:23;;;;;;;4.00;1.58;;;20.20;96.40;;;;;;5036942;28;20359;-79
2023/07/12 04:17:49;;;;;;;5.22;1.73;;;20.10;96.30;;;;;;5034525;28;20068;-79
2023/07/12 04:20:15;;;;;;;4.80;2.00;;;20.10;96.40;;;;;;5035297;28;20029;-79
2023/07/12 04:22:41;;;;;;;4.85;2.40;;;20.20;96.60;;;;;;5017249;28;20052;-79
2023/07/12 04:25:08;;;;;;;5.45;2.55;;;20.10;96.40;;;;;;5034534;28;20462;-79
2023/07/12 04:27:37;;;;;;;7.15;2.90;;;20.10;96.40;;;;;;5016629;28;20457;-80
2023/07/12 04:30:07;;;;;;;6.43;3.33;;;20.00;96.60;;;;;;5016731;28;20112;-79
2023/07/12 04:32:33;;;;;;;10.43;4.20;;;20.10;96.70;;;;;;5017786;28;20030;-79
2023/07/12 04:34:59;;;;;;;7.55;4.65;;;20.00;96.60;;;;;;5000846;28;20026;-78
2023/07/12 04:37:25;;;;;;;7.90;4.03;;;20.00;96.60;;;;;;5034425;28;20033;-79
2023/07/12 04:39:51;;;;;;;6.93;4.60;;;20.00;96.70;;;;;;5016665;28;20036;-80
2023/07/12 04:42:17;;;;;;;8.07;4.30;;;20.00;97.00;;;;;;5017554;28;20061;-79
2023/07/12 04:44:42;;;;;;;11.43;4.97;;;20.00;96.80;;;;;;5033956;28;20025;-79
2023/07/12 04:47:09;;;;;;;10.77;5.80;;;20.00;96.80;;;;;;5034667;28;20409;-78
2023/07/12 04:49:34;;;;;;;10.27;5.93;;;20.00;96.80;;;;;;4999854;28;20026;-84
2023/07/12 04:52:00;;;;;;;11.25;5.95;;;19.90;96.80;;;;;;4999634;28;20063;-84
2023/07/12 04:54:26;;;;;;;11.35;6.68;;;19.90;96.90;;;;;;5015983;28;20021;-82
2023/07/12 04:56:52;;;;;;;8.73;6.25;;;19.90;97.10;;;;;;5033526;28;20049;-83
2023/07/12 04:59:18;;;;;;;9.70;7.00;;;19.90;97.00;;;;;;5033543;28;20072;-84
2023/07/12 05:01:45;;;;;;;10.98;6.50;;;19.90;97.00;;;;;;4999677;28;20076;-83
2023/07/12 05:04:12;;;;;;;9.82;7.05;;;19.90;97.00;;;;;;5033963;28;20056;-83
2023/07/12 05:06:37;;;;;;;12.38;8.25;;;19.90;97.00;;;;;;5033448;28;20072;-85
2023/07/12 05:09:03;;;;;;;12.55;6.97;;;19.80;97.00;;;;;;5016907;28;20034;-82
2023/07/12 05:11:30;;;;;;;13.60;9.02;;;19.80;97.10;;;;;;5021340;28;20466;-83
2023/07/12 05:13:55;;;;;;;14.02;9.10;;;19.70;97.40;;;;;;5040540;28;20037;-82
2023/07/12 05:16:21;;;;;;;11.52;7.53;;;19.70;97.50;;;;;;5005192;28;20033;-82
2023/07/12 05:18:47;;;;;;;13.13;8.82;;;19.70;97.60;;;;;;5039843;28;20025;-83
2023/07/12 05:21:12;;;;;;;11.98;7.88;;;19.70;97.60;;;;;;5002025;28;20436;-82
2023/07/12 05:23:39;;;;;;;11.40;8.40;;;19.70;97.70;;;;;;5037283;28;20082;-83
2023/07/12 05:26:06;;;;;;;14.85;9.18;;;19.70;97.70;;;;;;5009048;28;20049;-83
2023/07/12 05:28:31;;;;;;;13.18;8.20;;;19.70;97.50;;;;;;5006118;28;20169;-83
2023/07/12 05:30:57;;;;;;;14.27;8.55;;;19.70;97.70;;;;;;5017637;28;20049;-82
2023/07/12 05:33:23;;;;;;;13.52;7.18;;;19.70;97.80;;;;;;5018230;28;20506;-82
2023/07/12 05:35:49;;;;;;;14.88;7.57;;;19.70;97.70;;;;;;5036291;28;20381;-83
2023/07/12 05:38:14;;;;;;;12.68;8.25;;;19.80;97.80;;;;;;5018829;28;20038;-83
2023/07/12 05:40:40;;;;;;;11.73;7.63;;;19.70;97.60;;;;;;5018223;28;20033;-83
2023/07/12 05:43:06;;;;;;;11.85;6.30;;;19.70;97.70;;;;;;5035321;28;20022;-83
2023/07/12 05:45:31;;;;;;;10.45;6.00;;;19.80;97.70;;;;;;5017962;28;20034;-81
2023/07/12 05:47:57;;;;;;;14.20;7.32;;;19.90;97.80;;;;;;5016053;28;20033;-78
2023/07/12 05:50:23;;;;;;;11.15;6.85;;;19.90;97.70;;;;;;5033030;28;20076;-80
2023/07/12 05:52:48;;;;;;;11.10;5.90;;;19.80;97.10;;;;;;5036643;28;20026;-79
2023/07/12 05:55:17;;;;;;;14.10;5.13;;;19.70;97.30;;;;;;5018615;28;20099;-77
2023/07/12 05:57:44;;;;;;;8.48;4.28;;;19.70;97.50;;;;;;5018884;28;20082;-79
2023/07/12 06:00:11;;;;;;;14.02;4.53;;;19.70;97.50;;;;;;5018749;28;20517;-77
2023/07/12 06:02:39;;;;;;;14.80;5.00;;;19.90;97.50;;;;;;5036350;28;20164;-76
2023/07/12 06:05:06;;;;;;;7.25;3.92;;;20.00;97.20;;;;;;5036316;28;20033;-79
2023/07/12 06:07:33;;;;;;;7.68;3.50;;;20.10;96.90;;;;;;5036318;28;20528;-77
2023/07/12 06:09:59;;;;;;;10.55;3.75;;;20.10;96.90;;;;;;5035998;28;20029;-78
2023/07/12 06:12:25;;;;;;;8.70;3.70;;;20.10;96.30;;;;;;5035882;28;20108;-77
2023/07/12 06:14:51;;;;;;;8.43;3.20;;;20.10;96.30;;;;;;5036109;28;20037;-78
2023/07/12 06:17:17;;;;;;;10.63;4.25;;;20.10;96.40;;;;;;5035712;28;20029;-76
2023/07/12 06:19:44;;;;;;;9.65;3.78;;;20.20;96.40;;;;;;5036067;28;20458;-76
2023/07/12 06:22:10;;;;;;;7.57;3.20;;;20.20;96.30;;;;;;5036572;28;20037;-75
2023/07/12 06:24:36;;;;;;;9.75;3.00;;;20.20;96.30;;;;;;5018211;28;20049;-76
2023/07/12 06:27:02;;;;;;;8.27;2.50;;;20.20;96.10;;;;;;5035701;28;20036;-78
2023/07/12 06:29:29;;;;;;;9.43;3.42;;;20.20;96.30;;;;;;5036541;28;20541;-77
2023/07/12 06:31:54;;;;;;;10.55;3.50;;;20.30;96.00;;;;;;5035969;28;20060;-77
2023/07/12 06:34:20;;;;;;;8.07;2.63;;;20.40;96.00;;;;;;5035161;28;20038;-77
2023/07/12 06:36:46;;;;;;;10.70;3.50;;;20.40;96.10;;;;;;5035676;28;20056;-77
2023/07/12 06:39:11;;;;;;;8.45;3.17;;;20.50;95.80;;;;;;5035573;28;20029;-78
2023/07/12 06:41:37;;;;;;;6.57;2.25;;;20.40;95.60;;;;;;5018003;28;20505;-77
2023/07/12 06:44:03;;;;;;;9.50;2.90;;;20.40;95.60;;;;;;5035596;28;20490;-77
2023/07/12 06:46:28;;;;;;;8.95;3.00;;;20.40;95.60;;;;;;5035830;28;20025;-79
2023/07/12 06:48:54;;;;;;;11.15;2.97;;;20.50;95.80;;;;;;5035833;28;20033;-80
2023/07/12 06:51:20;;;;;;;7.43;2.35;;;20.50;95.60;;;;;;5035385;28;20038;-82
2023/07/12 06:53:46;;;;;;;5.82;2.50;;;20.40;95.60;;;;;;5019226;28;20026;-83
2023/07/12 06:56:12;;;;;;;8.07;2.72;;;20.30;95.90;;;;;;5019600;28;20052;-84
2023/07/12 06:58:37;;;;;;;8.93;2.60;;;20.20;96.30;;;;;;5018505;28;20034;-82
2023/07/12 07:01:08;;;;;;;6.35;2.80;;;20.00;96.30;;;;;;5018453;28;20038;-83
2023/07/12 07:03:34;;;;;;;10.27;3.55;;;19.80;96.90;;;;;;5036055;28;20033;-83
2023/07/12 07:05:59;;;;;;;10.82;3.08;;;19.80;97.20;;;;;;5036562;28;20026;-83
2023/07/12 07:08:25;;;;;;;8.50;2.75;;;19.80;97.00;;;;;;5036276;28;20029;-83
2023/07/12 07:10:52;;;;;;;12.23;3.42;;;19.70;97.00;;;;;;5018197;28;20073;-84
2023/07/12 07:13:22;;;;;;;10.70;3.17;;;19.50;97.00;;;;;;5035103;28;20030;-82
2023/07/12 07:15:48;;;;;;;11.60;3.08;;;19.60;97.20;;;;;;5002777;28;20496;-80
2023/07/12 07:18:14;;;;;;;11.45;4.10;;;19.60;97.50;;;;;;5018426;28;20029;-83
2023/07/12 07:20:40;;;;;;;8.57;3.35;;;19.60;97.60;;;;;;5018147;28;20059;-83
2023/07/12 07:23:06;;;;;;;12.88;3.53;;;19.60;97.30;;;;;;5035773;28;20029;-84
2023/07/12 07:25:32;;;;;;;9.38;3.60;;;19.60;97.30;;;;;;5017520;28;20036;-83
2023/07/12 07:27:58;;;;;;;11.30;4.45;;;19.60;97.90;;;;;;5034433;28;20389;-83
2023/07/12 07:30:23;;;;;;;12.50;4.28;;;19.60;97.60;;;;;;5034955;28;20041;-80
2023/07/12 07:32:49;;;;;;;9.57;4.05;;;19.60;97.50;;;;;;5001287;28;20026;-80
2023/07/12 07:35:16;;;;;;;9.35;3.38;;;19.60;97.40;;;;;;5017187;28;20036;-80
2023/07/12 07:37:42;;;;;;;12.80;4.40;;;19.60;97.60;;;;;;5034859;28;20032;-82
2023/07/12 07:40:09;;;;;;;14.57;4.40;;;19.60;97.70;;;;;;5034739;28;20088;-80
2023/07/12 07:42:35;;;;;;;8.55;3.53;;;19.70;97.90;;;;;;5017517;28;20034;-82
2023/07/12 07:45:01;;;;;;;9.57;3.42;;;19.60;97.30;;;;;;5034434;28;20065;-83
2023/07/12 07:47:26;;;;;;;13.20;4.60;;;19.60;97.40;;;;;;5034313;28;20034;-80
2023/07/12 07:49:52;;;;;;;10.15;3.25;;;19.60;97.60;;;;;;5016727;28;20402;-83
2023/07/12 07:52:18;;;;;;;12.77;3.20;;;19.50;97.60;;;;;;5034208;28;20047;-80
2023/07/12 07:54:44;;;;;;;10.48;2.97;;;19.50;97.70;;;;;;5034394;28;20029;-83
2023/07/12 07:57:09;;;;;;;8.45;3.22;;;19.40;97.50;;;;;;5035020;28;20079;-84
2023/07/12 07:59:35;;;;;;;14.90;3.85;;;19.40;97.80;;;;;;5000312;28;20033;-79
2023/07/12 08:02:01;;;;;;;14.25;2.80;;;19.50;97.80;;;;;;5016415;28;20083;-80
2023/07/12 08:04:27;;;;;;;9.88;3.00;;;19.50;97.50;;;;;;5016785;28;20033;-81
2023/07/12 08:06:53;;;;;;;11.07;2.50;;;19.50;97.60;;;;;;5000149;28;20037;-80
2023/07/12 08:09:18;;;;;;;9.00;2.72;;;19.40;97.60;;;;;;5017495;28;20072;-82
2023/07/12 08:11:44;;;;;;;11.07;2.58;;;19.40;97.70;;;;;;5016277;28;20478;-82
2023/07/12 08:14:09;;;;;;;8.18;2.28;;;19.50;97.60;;;;;;5000026;28;20033;-82
2023/07/12 08:16:37;;;;;;;9.07;2.60;;;19.50;97.60;;;;;;5016455;28;20049;-80
2023/07/12 08:19:03;;;;;;;10.65;2.45;;;19.50;97.80;;;;;;5001804;28;20120;-82
2023/07/12 08:21:30;;;;;;;12.43;2.83;;;19.60;97.80;;;;;;5016994;28;20446;-80
2023/07/12 08:23:56;;;;;;;6.18;2.47;;;19.60;98.10;;;;;;5016596;28;20022;-82
2023/07/12 08:26:21;;;;;;;13.38;3.00;;;19.60;97.80;;;;;;5034091;28;20394;-81
2023/07/12 08:28:48;;;;;;;11.18;2.97;;;19.60;98.00;;;;;;5035307;28;20088;-80
2023/07/12 08:31:14;;;;;;;10.40;3.22;;;19.70;98.00;;;;;;5034783;28;20048;-80
2023/07/12 08:33:41;;;;;;;12.55;3.15;;;19.60;97.80;;;;;;5034227;28;20029;-81
2023/07/12 08:36:07;;;;;;;8.93;2.53;;;19.50;97.70;;;;;;5016768;28;20087;-82
2023/07/12 08:38:33;;;;;;;15.77;3.67;;;19.60;97.80;;;;;;5017451;28;20029;-81
2023/07/12 08:40:59;;;;;;;8.90;2.75;;;19.70;97.60;;;;;;5018345;28;20462;-77
2023/07/12 08:43:32;;;;;;;7.82;2.83;;;19.90;97.60;;;;;;5003612;28;20079;-81
2023/07/12 08:46:05;;;;;;;15.07;3.15;;;20.00;97.50;;;;;;5035787;28;20064;-78
2023/07/12 08:48:31;;;;;;;14.90;3.50;;;20.20;97.60;;;;;;5033630;28;20036;-78
2023/07/12 08:50:57;;;;;;;9.80;2.70;;;20.40;96.90;;;;;;5015772;28;20033;-80
2023/07/12 08:53:26;;;;;;;15.98;2.70;;;20.40;95.80;;;;;;5016274;28;20064;-81
2023/07/12 08:55:54;;;;;;;11.15;2.78;;;20.30;96.00;;;;;;5015438;28;20032;-80
2023/07/12 08:58:22;;;;;;;7.00;2.60;;;20.30;96.40;;;;;;5016182;28;20457;-79
2023/07/12 09:01:03;;;;;;;10.55;2.90;;;20.40;96.60;;;;;;5033696;28;20030;-79
2023/07/12 09:03:29;;;;;;;7.57;2.40;;;20.50;96.20;;;;;;5033496;28;20053;-78
2023/07/12 09:05:55;;;;;;;15.45;2.25;;;20.60;95.20;;;;;;5015690;28;20057;-78
2023/07/12 09:08:27;;;;;;;10.18;2.45;;;20.60;95.30;;;;;;5033697;28;20032;-78
2023/07/12 09:10:56;;;;;;;9.70;2.20;;;20.80;94.90;;;;;;5033686;28;20041;-76
2023/07/12 09:13:32;;;;;;;10.38;2.53;;;21.00;94.80;;;;;;5016075;28;20568;-78
2023/07/12 09:15:57;;;;;;;10.68;2.40;;;21.20;94.50;;;;;;5015624;28;20030;-79
2023/07/12 09:18:45;;;;;;;9.48;2.00;;;21.30;94.30;;;;;;5015875;28;20030;-77
2023/07/12 09:21:19;;;;;;;10.85;2.35;;;21.40;94.00;;;;;;5033110;28;20026;-78
2023/07/12 09:23:45;;;;;;;12.32;2.30;;;21.60;93.90;;;;;;5015530;28;20063;-79
2023/07/12 09:26:26;;;;;;;12.68;2.90;;;21.60;93.20;;;;;;5035729;28;20057;-81
2023/07/12 09:29:02;;;;;;;8.25;2.10;;;21.50;93.00;;;;;;5020757;28;20446;-80
2023/07/12 09:31:29;;;;;;;7.53;1.95;;;21.40;93.00;;;;;;5037434;28;20044;-81
2023/07/12 09:34:00;;;;;;;7.95;2.08;;;21.50;92.80;;;;;;5019358;28;20109;-82
2023/07/12 09:36:26;;;;;;;7.53;2.20;;;21.60;92.70;;;;;;5019147;28;20021;-81
2023/07/12 09:38:58;;;;;;;7.30;2.35;;;21.50;93.00;;;;;;5020016;28;20426;-80
2023/07/12 09:41:25;;;;;;;11.50;2.28;;;21.50;92.70;;;;;;5042886;28;20530;-82
2023/07/12 09:43:56;;;;;;;5.72;1.83;;;21.40;93.00;;;;;;5023073;28;20112;-79
2023/07/12 09:46:31;;;;;;;14.95;2.80;;;21.50;93.40;;;;;;5022036;28;20055;-81
2023/07/12 09:49:17;;;;;;;6.82;2.00;;;21.70;93.20;;;;;;5018953;28;20060;-81
2023/07/12 09:52:13;;;;;;;10.38;1.90;;;21.70;92.60;;;;;;5036827;28;20033;-81
2023/07/12 09:55:08;;;;;;;7.95;2.45;;;21.70;92.00;;;;;;5037519;28;20025;-79
2023/07/12 09:57:49;;;;;;;8.02;1.73;;;21.60;91.90;;;;;;5020242;28;20381;-81
2023/07/12 10:00:27;;;;;;;10.13;2.33;;;21.60;92.90;;;;;;5019830;28;20043;-81
2023/07/12 10:03:01;;;;;;;6.57;1.42;;;21.70;91.70;;;;;;5019835;28;20021;-82
2023/07/12 10:05:28;;;;;;;7.75;1.55;;;21.60;91.10;;;;;;5036610;28;20025;-81
2023/07/12 10:08:16;;;;;;;6.97;1.77;;;21.70;91.70;;;;;;5037051;28;20112;-82
2023/07/12 10:10:44;;;;;;;8.90;2.25;;;22.00;91.70;;;;;;5038287;28;20505;-82
2023/07/12 10:13:49;;;;;;;8.77;2.00;;;22.00;91.00;;;;;;5038396;28;20029;-84
2023/07/12 10:16:21;;;;;;;11.40;1.75;;;22.00;91.10;;;;;;5043328;28;20029;-82
2023/07/12 10:18:49;;;;;;;9.40;2.00;;;22.10;91.10;;;;;;5024083;28;20060;-83
2023/07/12 10:21:22;;;;;;;6.40;1.25;;;22.20;91.20;;;;;;5043551;28;20033;-83
2023/07/12 10:24:02;;;;;;;11.07;1.67;;;22.40;90.60;;;;;;5024521;28;20025;-84
2023/07/12 10:26:28;;;;;;;8.95;1.55;;;22.40;90.30;;;;;;5042691;28;20021;-84
2023/07/12 10:29:12;;;;;;;12.73;1.70;;;22.30;90.10;;;;;;5023703;28;20099;-84
2023/07/12 10:31:57;;;;;;;7.47;1.95;;;22.30;90.10;;;;;;5040897;28;20088;-84
2023/07/12 10:34:28;;;;;;;12.35;1.70;;;22.20;90.10;;;;;;5020940;28;20032;-83
2023/07/12 10:36:56;;;;;;;8.10;2.03;;;22.20;90.40;;;;;;5038124;28;20026;-83
2023/07/12 10:39:25;;;;;;;6.95;1.55;;;22.20;90.50;;;;;;5021771;28;20045;-83
2023/07/12 10:42:20;;;;;;;14.35;2.53;;;22.20;90.70;;;;;;5045233;28;20017;-82
2023/07/12 10:44:55;;;;;;;9.52;2.40;;;22.00;92.50;;;;;;5038150;28;20040;-82
2023/07/12 10:47:27;;;;;;;11.35;2.65;;;21.80;93.00;;;;;;5039668;28;20040;-82
2023/07/12 10:50:00;;;;;;;8.00;1.98;;;21.70;93.60;;;;;;5035833;28;20057;-83
2023/07/12 10:52:52;;;;;;;7.47;1.90;;;21.50;94.00;;;;;;5056124;28;20402;-83
2023/07/12 10:55:35;;;;;;;10.27;2.20;;;21.40;94.50;;;;;;5048430;28;20026;-83
2023/07/12 10:58:23;;;;;;;7.50;1.90;;;21.40;95.10;;;;;;5049277;28;20022;-83
2023/07/12 11:00:58;;;;;;;8.50;1.90;;;21.40;95.40;;;;;;5052257;28;20030;-83
2023/07/12 11:03:41;;;;;;;6.88;1.67;;;21.30;95.50;;;;;;5049867;28;20040;-83
2023/07/12 11:06:22;;;;;;;9.30;1.40;;;21.10;95.30;;;;;;5028570;28;20152;-83
2023/07/12 11:09:02;;;;;;;7.53;1.60;;;21.10;95.40;;;;;;5025455;28;20036;-83
2023/07/12 11:11:30;;;;;;;6.65;1.48;;;21.30;95.80;;;;;;5024531;28;20128;-83
2023/07/12 11:14:34;;;;;;;8.55;1.42;;;21.50;95.50;;;;;;5037881;28;20029;-83
2023/07/12 11:17:13;;;;;;;6.20;1.38;;;21.70;95.20;;;;;;5007045;28;20128;-82
2023/07/12 11:19:38;;;;;;;4.45;1.00;;;21.60;93.80;;;;;;5037534;28;20026;-81
2023/07/12 11:22:17;;;;;;;7.05;0.90;;;21.50;93.40;;;;;;5036040;28;20101;-82
2023/07/12 11:24:45;;;;;;;6.03;1.10;;;21.50;94.00;;;;;;5037032;28;20021;-83
2023/07/12 11:27:47;;;;;;;7.25;1.30;;;21.50;93.90;;;;;;5017407;28;20484;-82
2023/07/12 11:30:20;;;;;;;7.75;1.05;;;21.50;93.80;;;;;;4955360;28;20118;-83
2023/07/12 11:32:48;;;;;;;5.18;1.05;;;21.60;94.00;;;;;;5022312;28;20037;-81
2023/07/12 11:35:22;;;;;;;5.22;1.20;;;21.80;93.60;;;;;;5017739;28;20043;-80
2023/07/12 11:37:52;;;;;;;5.32;1.15;;;22.00;92.30;;;;;;5034941;28;20038;-81
2023/07/12 11:40:22;;;;;;;8.45;1.85;;;22.20;92.20;;;;;;5017448;28;20450;-81
2023/07/12 11:42:48;;;;;;;6.07;1.33;;;22.40;92.60;;;;;;5034725;28;20493;-80
2023/07/12 11:45:17;;;;;;;5.47;1.23;;;22.70;92.30;;;;;;5018568;28;20029;-82
2023/07/12 11:47:51;;;;;;;8.00;1.70;;;22.80;90.90;;;;;;5035389;28;20028;-81
2023/07/12 11:50:22;;;;;;;7.93;1.40;;;22.90;90.40;;;;;;5019274;28;20033;-81
2023/07/12 11:52:49;;;;;;;4.75;1.13;;;23.00;88.10;;;;;;5019282;28;20030;-81
2023/07/12 11:55:17;;;;;;;8.18;1.38;;;23.00;87.60;;;;;;5018706;28;20056;-82
2023/07/12 11:57:45;;;;;;;5.25;0.95;;;23.10;87.70;;;;;;5037334;28;20040;-83
2023/07/12 12:00:14;;;;;;;5.13;0.93;;;23.20;85.90;;;;;;5019745;28;20402;-82
2023/07/12 12:02:41;;;;;;;6.05;0.93;;;23.30;84.70;;;;;;5037393;28;20021;-82
2023/07/12 12:05:16;;;;;;;5.40;1.48;;;23.30;84.10;;;;;;5003052;28;20382;-81
2023/07/12 12:07:42;;;;;;;8.13;1.05;;;23.40;84.00;;;;;;5035864;28;20112;-82
2023/07/12 12:10:19;;;;;;;5.72;1.27;;;23.40;84.00;;;;;;5017716;28;20032;-80
2023/07/12 12:12:47;;;;;;;9.77;1.35;;;23.40;83.00;;;;;;5020679;28;20037;-82
2023/07/12 12:15:19;;;;;;;6.53;1.05;;;23.50;82.60;;;;;;5019244;28;20060;-82
2023/07/12 12:17:45;;;;;;;6.32;1.10;;;23.60;83.20;;;;;;5018528;28;20025;-82
2023/07/12 12:20:17;;;;;;;5.93;0.80;;;23.70;82.80;;;;;;5018761;28;20124;-82
2023/07/12 12:22:50;;;;;;;4.95;0.80;;;23.60;81.20;;;;;;5016702;28;20393;-81
2023/07/12 12:25:17;;;;;;;4.82;0.90;;;23.70;82.10;;;;;;5035958;28;20057;-80
2023/07/12 12:27:45;;;;;;;5.05;0.70;;;23.70;80.90;;;;;;5018027;28;20045;-81
2023/07/12 12:30:33;;;;;;;5.43;0.80;;;23.70;80.50;;;;;;5018193;28;20037;-81
2023/07/12 12:32:59;;;;;;;5.18;0.80;;;23.80;80.80;;;;;;5017864;28;20065;-81
2023/07/12 12:35:25;;;;;;;3.78;0.70;;;23.90;79.80;;;;;;5034663;28;20373;-81
2023/07/12 12:37:59;;;;;;;5.45;1.38;;;24.00;81.20;;;;;;5017987;28;20026;-84
2023/07/12 12:40:26;;;;;;;6.32;1.00;;;24.10;80.40;;;;;;5003727;28;20120;-82
2023/07/12 12:42:59;;;;;;;4.45;1.00;;;24.10;80.40;;;;;;5037026;28;20025;-82
2023/07/12 12:45:36;;;;;;;4.63;0.85;;;24.20;79.00;;;;;;5036230;28;20030;-81
2023/07/12 12:48:09;;;;;;;6.43;1.10;;;24.40;79.90;;;;;;5037281;28;20022;-80
2023/07/12 12:50:35;;;;;;;4.05;0.73;;;24.40;79.10;;;;;;5037561;28;20021;-82
2023/07/12 12:53:04;;;;;;;6.53;1.13;;;24.40;78.90;;;;;;5035130;28;20027;-82